Weather at Bogatić Airfield

Public forecast

Using degrees Celsius for public forecast. Weather courtesy of forecast.io.

Closest aviation weather report (METAR) to Bogatić Airfield

Closest report is Batajnica Air Base, 32.9 nm (60.9 km) ENE.

2024/05/22 20:00 (retrieved 15 minutes ago)

LYBT 222000Z 19006KT 9999 RA SCT047 16/15 Q1012 NOSIG

Closest aviation forecast (TAF) to Bogatić Airfield

Closest forecast is Batajnica Air Base, 32.9 nm (60.9 km) ENE.

2024/05/22 18:00 (retrieved 2 hours ago)

TAF LYBT 221700Z 2218/2318 24005KT 9999 SCT040 TX22/2313Z TN14/2304Z TEMPO 2218/2221 22015G25KT 3000 TSRA SCT030CB BKN040 TEMPO 2221/2304 30010KT 4000 SHRA SCT010 SCT027TCU BKN033 TEMPO 2304/2306 4000 BR BKN005 PROB40 TEMPO 2311/2315 30015KT 4000 TSRA SCT013 SCT027CB BKN030